Time;durP1;ratioP1;P1;durP2;ratioP2;P2;SDS_P1;SDS_P2;PMS_P1;PMS_P2;Temp;Humidity;BMP_temperature;BMP_pressure;BME280_temperature;BME280_humidity;BME280_pressure;Samples;Min_cycle;Max_cycle;Signal;HPM_P1;HPM_P2
2022/06/30 00:02:03;;;;;;;6.68;5.18;;;;;;;25.94;61.95;101161.31;5052277;28;20095;-85
2022/06/30 00:04:29;;;;;;;8.60;5.13;;;;;;;25.91;61.41;101169.38;5054052;28;20029;-85
2022/06/30 00:06:54;;;;;;;;;;;;;;;26.07;62.02;101180.91;5054837;28;20021;-85
2022/06/30 00:09:20;;;;;;;9.98;5.57;;;;;;;25.66;62.22;101118.56;5028194;28;20630;-85
2022/06/30 00:11:45;;;;;;;;;;;;;;;26.06;62.04;101181.81;5017198;28;20113;-84
2022/06/30 00:14:11;;;;;;;5.63;4.63;;;;;;;25.93;62.10;101156.84;5052062;28;19969;-85
2022/06/30 00:16:37;;;;;;;;;;;;;;;26.07;61.91;101189.81;5054433;28;20029;-85
2022/06/30 00:19:02;;;;;;;7.38;5.20;;;;;;;25.93;61.66;101180.94;5053801;28;19909;-85
2022/06/30 00:21:28;;;;;;;9.32;5.18;;;;;;;25.94;61.48;101180.06;5053732;28;20053;-85
2022/06/30 00:23:54;;;;;;;9.93;5.70;;;;;;;25.74;61.58;101143.50;5019597;28;20020;-85
2022/06/30 00:26:19;;;;;;;9.50;5.05;;;;;;;25.67;61.49;101122.13;5015978;28;20048;-85
2022/06/30 00:28:46;;;;;;;;;;;;;;;26.01;61.08;101187.16;5020053;28;20052;-85
2022/06/30 00:31:12;;;;;;;7.05;4.88;;;;;;;26.02;61.48;101172.91;5022681;28;20380;-84
2022/06/30 00:33:37;;;;;;;7.20;5.05;;;;;;;25.84;61.34;101152.38;5043701;28;20044;-84
2022/06/30 00:36:03;;;;;;;6.40;5.03;;;;;;;25.91;61.45;101172.06;5045929;28;20479;-84
2022/06/30 00:38:29;;;;;;;;;;;;;;;26.04;61.27;101181.81;5049957;28;20041;-84
2022/06/30 00:40:54;;;;;;;8.10;5.53;;;;;;;25.97;61.51;101178.28;5016259;28;19909;-84
2022/06/30 00:43:20;;;;;;;;;;;;;;;26.00;61.54;101180.03;5032307;28;20104;-84
2022/06/30 00:45:47;;;;;;;7.38;5.40;;;;;;;25.93;61.55;101186.28;5035757;28;19908;-84
2022/06/30 00:48:13;;;;;;;10.48;5.10;;;;;;;25.94;61.45;101177.38;5047171;28;20079;-83
2022/06/30 00:50:39;;;;;;;8.00;5.15;;;;;;;25.91;61.78;101177.41;5035080;28;20393;-84
2022/06/30 00:53:05;;;;;;;;;;;;;;;26.00;61.17;101172.91;5053797;28;20021;-84
2022/06/30 00:55:31;;;;;;;8.48;5.25;;;;;;;25.96;61.42;101180.94;5053340;28;20387;-84
2022/06/30 00:58:01;;;;;;;7.22;5.03;;;;;;;25.57;60.96;101113.25;5053141;28;20020;-84
2022/06/30 01:00:29;;;;;;;7.28;5.00;;;;;;;25.92;61.56;101169.34;5053447;28;20408;-84
2022/06/30 01:02:55;;;;;;;5.70;5.10;;;;;;;25.75;61.72;101152.41;5032223;28;20021;-84
2022/06/30 01:05:21;;;;;;;;;;;;;;;25.94;61.70;101170.22;5032078;28;20030;-84
2022/06/30 01:07:47;;;;;;;9.48;4.82;;;;;;;25.80;61.48;101161.31;5035389;28;19908;-84
2022/06/30 01:12:57;;;;;;;7.03;5.20;;;;;;;25.79;61.08;101157.75;5035727;28;20024;-84
2022/06/30 01:15:22;;;;;;;;;;;;;;;25.93;61.49;101172.91;5028783;28;20017;-84
2022/06/30 01:17:49;;;;;;;6.07;5.15;;;;;;;25.79;61.24;101159.53;5052905;28;19912;-83
2022/06/30 01:20:17;;;;;;;11.60;5.35;;;;;;;25.88;60.99;101172.88;5046264;28;20021;-82
2022/06/30 01:22:43;;;;;;;9.60;4.75;;;;;;;25.83;61.51;101165.78;5018614;28;20040;-84
2022/06/30 01:25:10;;;;;;;7.72;5.15;;;;;;;25.83;61.10;101169.34;5032759;28;20111;-84
2022/06/30 01:27:36;;;;;;;5.45;4.78;;;;;;;25.90;61.64;101176.47;5035422;28;20021;-85
2022/06/30 01:30:03;;;;;;;8.32;4.85;;;;;;;25.75;61.00;101149.75;5049203;28;20032;-84
2022/06/30 01:32:29;;;;;;;7.00;5.00;;;;;;;25.76;61.15;101159.53;5045552;28;20037;-84
2022/06/30 01:34:56;;;;;;;6.28;5.03;;;;;;;25.87;61.29;101175.59;5035029;28;20669;-85
2022/06/30 01:37:24;;;;;;;6.65;5.35;;;;;;;25.73;61.11;101162.22;5018628;28;20113;-85
2022/06/30 01:40:11;;;;;;;5.53;4.47;;;;;;;25.86;61.99;101180.03;5052902;28;20128;-84
2022/06/30 01:42:57;;;;;;;7.75;4.90;;;;;;;25.83;61.85;101193.44;5059176;28;20024;-85
2022/06/30 01:45:23;;;;;;;7.03;5.10;;;;;;;25.87;61.64;101192.53;5065250;28;20016;-84
2022/06/30 01:47:50;;;;;;;;;;;;;;;25.92;61.79;101195.22;5057190;28;20025;-84
2022/06/30 01:50:25;;;;;;;6.07;5.18;;;;;;;25.81;61.40;101192.53;5039650;28;19909;-83
2022/06/30 01:52:50;;;;;;;6.57;5.60;;;;;;;25.73;61.11;101184.50;5030951;28;20024;-83
2022/06/30 01:55:16;;;;;;;;;;;;;;;25.88;61.08;101196.97;5035196;28;20021;-84
2022/06/30 01:57:41;;;;;;;6.60;4.70;;;;;;;25.83;60.91;101196.09;5034065;28;19920;-83
2022/06/30 02:00:08;;;;;;;;;;;;;;;25.87;60.91;101187.19;5034922;28;20082;-85
2022/06/30 02:02:34;;;;;;;7.57;4.90;;;;;;;25.79;61.31;101180.94;5034790;28;19912;-85
2022/06/30 02:05:00;;;;;;;;;;;;;;;25.87;61.62;101186.28;5034823;28;20035;-85
2022/06/30 02:07:26;;;;;;;6.53;4.63;;;;;;;25.62;61.33;101164.94;5034701;28;19909;-85
2022/06/30 02:09:52;;;;;;;;;;;;;;;25.83;61.27;101195.22;5052115;28;20025;-85
2022/06/30 02:15:05;;;;;;;7.60;5.43;;;;;;;25.64;60.96;101168.50;5031836;28;20028;-84
2022/06/30 02:17:31;;;;;;;6.63;5.30;;;;;;;25.60;61.06;101158.69;5051520;28;20100;-85
2022/06/30 02:19:56;;;;;;;;;;;;;;;25.84;61.54;101183.59;5034274;28;20643;-85
2022/06/30 02:22:22;;;;;;;5.65;5.07;;;;;;;25.76;61.63;101184.53;5027358;28;19908;-84
2022/06/30 02:24:48;;;;;;;;;;;;;;;25.80;61.16;101188.06;5033907;28;20021;-84
2022/06/30 02:27:13;;;;;;;7.03;5.07;;;;;;;25.42;60.48;101135.56;5051649;28;19991;-83
2022/06/30 02:29:39;;;;;;;;;;;;;;;25.77;60.68;101191.66;5027071;28;20029;-85
2022/06/30 02:32:05;;;;;;;7.97;4.63;;;;;;;25.37;60.41;101127.53;5051516;28;20533;-84
2022/06/30 02:34:30;;;;;;;6.22;4.88;;;;;;;25.54;61.06;101159.59;5034354;28;20041;-85
2022/06/30 02:36:56;;;;;;;;;;;;;;;25.77;61.04;101193.44;5032114;28;20045;-85
2022/06/30 02:39:22;;;;;;;7.32;5.00;;;;;;;25.64;60.20;101181.88;5032984;28;19909;-85
2022/06/30 02:41:47;;;;;;;;;;;;;;;25.77;60.33;101194.31;5051218;28;20099;-85
2022/06/30 02:44:13;;;;;;;10.65;5.38;;;;;;;25.74;60.66;101194.34;5031758;28;19921;-84
2022/06/30 02:46:38;;;;;;;;;;;;;;;25.73;61.18;101189.88;5030286;28;20086;-84
2022/06/30 02:49:04;;;;;;;7.15;5.30;;;;;;;25.65;59.91;101188.09;5050345;28;20016;-84
2022/06/30 02:51:30;;;;;;;;;;;;;;;25.73;60.77;101202.34;5038706;28;20033;-84
2022/06/30 02:53:55;;;;;;;6.30;4.90;;;;;;;25.60;60.13;101180.09;5048877;28;19913;-84
2022/06/30 02:56:21;;;;;;;;;;;;;;;25.73;61.05;101195.22;5049301;28;20082;-84
2022/06/30 02:58:47;;;;;;;6.25;5.05;;;;;;;25.32;60.32;101141.81;5047866;28;19908;-84
2022/06/30 03:01:13;;;;;;;6.65;5.38;;;;;;;25.64;60.47;101199.72;5032175;28;20063;-84
2022/06/30 03:03:39;;;;;;;;;;;;;;;25.67;60.81;101205.91;5028667;28;20036;-84
2022/06/30 03:06:05;;;;;;;6.13;5.13;;;;;;;25.45;59.88;101166.75;5049009;28;19913;-83
2022/06/30 03:08:30;;;;;;;;;;;;;;;25.70;60.72;101197.03;5032953;28;20028;-84
2022/06/30 03:10:56;;;;;;;9.55;5.05;;;;;;;25.33;60.07;101140.91;5048888;28;19959;-84
2022/06/30 03:13:21;;;;;;;6.65;4.93;;;;;;;25.62;60.15;101194.34;5047984;28;20029;-84
2022/06/30 03:15:49;;;;;;;8.18;5.05;;;;;;;25.46;60.23;101173.88;5048941;28;20025;-85
2022/06/30 03:18:15;;;;;;;6.28;4.95;;;;;;;25.63;60.45;101203.25;5046470;28;20024;-83
2022/06/30 03:20:41;;;;;;;6.63;5.13;;;;;;;25.26;60.52;101137.34;5029239;28;20081;-85
2022/06/30 03:23:07;;;;;;;;;;;;;;;25.66;60.64;101201.47;5048498;28;20025;-84
2022/06/30 03:25:32;;;;;;;6.68;5.18;;;;;;;25.61;60.02;101197.91;5042638;28;20018;-84
2022/06/30 03:27:58;;;;;;;;;;;;;;;25.69;60.66;101193.44;5051256;28;20495;-85
2022/06/30 03:30:23;;;;;;;7.50;5.10;;;;;;;25.64;60.39;101203.28;5029676;28;20458;-83
2022/06/30 03:32:49;;;;;;;;;;;;;;;25.64;60.74;101200.59;5042703;28;20021;-84
2022/06/30 03:35:14;;;;;;;7.07;4.97;;;;;;;25.60;60.19;101197.03;5051337;28;19917;-84
2022/06/30 03:37:40;;;;;;;;;;;;;;;25.66;60.31;101196.13;5055092;28;20031;-84
2022/06/30 03:40:06;;;;;;;6.88;4.93;;;;;;;25.46;59.94;101176.53;5029012;28;19924;-84
2022/06/30 03:42:31;;;;;;;7.88;5.50;;;;;;;25.55;60.34;101197.94;5034462;28;20060;-84
2022/06/30 03:44:57;;;;;;;;;;;;;;;25.62;60.53;101198.81;5054784;28;20091;-82
2022/06/30 03:47:22;;;;;;;5.70;5.07;;;;;;;25.56;60.38;101203.25;5051418;28;19936;-84
2022/06/30 03:49:48;;;;;;;;;;;;;;;25.63;60.07;101211.28;5039743;28;20032;-83
2022/06/30 03:52:13;;;;;;;9.95;5.65;;;;;;;25.55;60.54;101195.28;5052517;28;19967;-84
2022/06/30 03:54:39;;;;;;;;;;;;;;;25.64;60.65;101207.75;5051093;28;20114;-83
2022/06/30 03:57:05;;;;;;;5.85;4.82;;;;;;;25.43;59.75;101181.91;5034842;28;19916;-84
2022/06/30 03:59:30;;;;;;;;;;;;;;;25.59;60.04;101200.59;5051679;28;20411;-84
2022/06/30 04:01:56;;;;;;;6.07;4.93;;;;;;;25.54;60.14;101209.50;5035312;28;20379;-84
2022/06/30 04:04:21;;;;;;;;;;;;;;;25.56;60.45;101205.94;5053871;28;20051;-83
2022/06/30 04:06:47;;;;;;;6.82;4.88;;;;;;;25.35;60.60;101181.88;5034752;28;19913;-84
2022/06/30 04:09:12;;;;;;;;;;;;;;;25.57;60.65;101214.88;5053636;28;20523;-83
2022/06/30 04:11:38;;;;;;;5.97;5.35;;;;;;;25.08;60.15;101145.31;5032578;28;19960;-83
2022/06/30 04:14:04;;;;;;;7.68;5.43;;;;;;;25.23;60.40;101168.53;5035150;28;20033;-83
2022/06/30 04:16:29;;;;;;;;;;;;;;;25.54;60.94;101221.09;5018680;28;20029;-83
2022/06/30 04:18:55;;;;;;;7.35;5.55;;;;;;;25.51;60.56;101221.09;5053382;28;20417;-83
2022/06/30 04:21:20;;;;;;;;;;;;;;;25.53;60.37;101221.13;5052082;28;20553;-84
2022/06/30 04:23:46;;;;;;;8.00;5.68;;;;;;;25.48;60.77;101212.19;5034600;28;19921;-84
2022/06/30 04:26:12;;;;;;;;;;;;;;;25.48;60.88;101207.72;5030133;28;20034;-84
2022/06/30 04:28:38;;;;;;;7.13;5.43;;;;;;;25.23;60.96;101176.53;5042542;28;19913;-83
2022/06/30 04:33:48;;;;;;;6.22;5.60;;;;;;;25.38;60.70;101205.97;5052461;28;20035;-85
2022/06/30 04:36:13;;;;;;;;;;;;;;;25.47;61.22;101207.75;5033818;28;20041;-85
2022/06/30 04:38:39;;;;;;;8.23;5.68;;;;;;;25.45;60.93;101215.75;5035287;28;19921;-85
2022/06/30 04:43:49;;;;;;;6.38;5.43;;;;;;;25.44;61.57;101221.09;5052127;28;20315;-84
2022/06/30 04:46:15;;;;;;;7.70;6.07;;;;;;;25.41;61.41;101213.97;5031758;28;20120;-84
2022/06/30 04:48:40;;;;;;;;;;;;;;;25.46;62.01;101228.22;5033637;28;20132;-86
2022/06/30 04:51:07;;;;;;;7.45;5.40;;;;;;;25.29;61.90;101200.59;5030041;28;20506;-87
2022/06/30 04:53:33;;;;;;;8.65;5.70;;;;;;;25.25;62.23;101197.06;5037217;28;20028;-86
2022/06/30 04:55:59;;;;;;;;;;;;;;;25.42;62.51;101221.13;5026624;28;20528;-86
2022/06/30 04:58:24;;;;;;;11.95;6.00;;;;;;;25.21;61.63;101176.56;5050943;28;19917;-85
2022/06/30 05:00:50;;;;;;;;;;;;;;;25.44;62.45;101218.44;5052047;28;20032;-86
2022/06/30 05:03:15;;;;;;;6.82;5.93;;;;;;;25.33;62.53;101203.28;5033477;28;20030;-84
2022/06/30 05:05:41;;;;;;;;;;;;;;;25.44;62.38;101213.97;5051320;28;20029;-82
2022/06/30 05:08:06;;;;;;;7.15;5.80;;;;;;;25.27;62.63;101195.25;5049682;28;19912;-81
2022/06/30 05:10:32;;;;;;;;;;;;;;;25.44;62.80;101210.41;5052218;28;20032;-82
2022/06/30 05:12:57;;;;;;;7.18;5.65;;;;;;;25.26;63.02;101205.97;5040426;28;19963;-81
2022/06/30 05:15:23;;;;;;;6.70;5.35;;;;;;;25.38;63.40;101220.22;5049641;28;20047;-82
2022/06/30 05:17:49;;;;;;;6.97;5.45;;;;;;;25.27;63.42;101199.72;5066846;28;20041;-77
2022/06/30 05:20:14;;;;;;;;;;;;;;;25.39;63.43;101223.78;5065788;28;20032;-81
2022/06/30 05:22:40;;;;;;;7.15;5.30;;;;;;;25.34;63.51;101213.09;5053321;28;20379;-81
2022/06/30 05:27:50;;;;;;;7.25;5.50;;;;;;;25.25;63.54;101209.50;5053359;28;20514;-80
2022/06/30 05:30:16;;;;;;;;;;;;;;;25.47;63.53;101240.72;5053016;28;20029;-81
2022/06/30 05:32:46;;;;;;;6.97;5.30;;;;;;;25.44;63.57;101235.34;5014618;28;20387;-81
2022/06/30 05:35:15;;;;;;;6.75;5.57;;;;;;;25.14;63.90;101182.75;5018594;28;20120;-81
2022/06/30 05:37:41;;;;;;;7.70;5.20;;;;;;;25.47;64.03;101242.50;5051698;28;20403;-81
2022/06/30 05:40:07;;;;;;;;;;;;;;;25.54;63.67;101249.63;5018652;28;20031;-81
2022/06/30 05:42:46;;;;;;;6.10;5.50;;;;;;;25.17;64.02;101193.44;5023270;28;20371;-81
2022/06/30 05:45:12;;;;;;;6.65;5.05;;;;;;;25.12;63.55;101185.41;5052095;28;20091;-82
2022/06/30 05:47:44;;;;;;;;;;;;;;;25.56;63.55;101254.06;5031284;28;20063;-80
2022/06/30 05:50:10;;;;;;;5.45;4.95;;;;;;;25.32;63.66;101222.88;5048793;28;19917;-80
2022/06/30 05:52:36;;;;;;;;;;;;;;;25.57;63.75;101263.91;5017415;28;20029;-80
2022/06/30 05:55:02;;;;;;;5.68;5.07;;;;;;;25.27;63.21;101199.72;5032150;28;19913;-79
2022/06/30 05:57:27;;;;;;;;;;;;;;;25.57;63.55;101258.56;5052276;28;20039;-81
2022/06/30 05:59:53;;;;;;;5.47;4.97;;;;;;;25.52;63.53;101240.72;5050687;28;20007;-80
2022/06/30 06:02:18;;;;;;;;;;;;;;;25.60;63.22;101261.22;5050242;28;20443;-81
2022/06/30 06:04:45;;;;;;;6.80;5.07;;;;;;;25.55;63.34;101256.78;5044770;28;20421;-81
2022/06/30 06:07:12;;;;;;;6.00;5.28;;;;;;;25.52;63.17;101254.97;5010803;28;20104;-80
2022/06/30 06:09:40;;;;;;;5.63;5.07;;;;;;;25.64;63.80;101263.91;5033002;28;20045;-80
2022/06/30 06:12:05;;;;;;;;;;;;;;;25.70;63.40;101270.13;5029019;28;20031;-80
2022/06/30 06:14:31;;;;;;;5.47;4.97;;;;;;;25.53;63.25;101247.88;5051431;28;19912;-80
2022/06/30 06:16:56;;;;;;;;;;;;;;;25.67;63.57;101263.88;5047904;28;20033;-81
2022/06/30 06:19:22;;;;;;;11.18;5.32;;;;;;;25.65;63.49;101265.66;5051749;28;19933;-80
2022/06/30 06:21:48;;;;;;;5.45;4.80;;;;;;;25.67;63.15;101272.81;5051459;28;20098;-82
2022/06/30 06:24:15;;;;;;;6.10;5.18;;;;;;;25.57;63.59;101263.91;5051880;28;20030;-81
2022/06/30 06:26:40;;;;;;;5.85;4.90;;;;;;;25.66;63.14;101267.47;5034045;28;20043;-81
2022/06/30 06:29:06;;;;;;;;;;;;;;;25.74;63.81;101290.66;5051884;28;20476;-81
2022/06/30 06:31:37;;;;;;;6.00;5.45;;;;;;;25.69;63.03;101273.69;5030370;28;19999;-81
2022/06/30 06:34:04;;;;;;;6.32;4.85;;;;;;;25.71;62.91;101276.38;5050727;28;20471;-81
2022/06/30 06:36:29;;;;;;;5.75;4.97;;;;;;;25.56;63.19;101251.41;5050237;28;20080;-81
2022/06/30 06:38:55;;;;;;;;;;;;;;;25.73;63.64;101279.94;5050866;28;20056;-82
2022/06/30 06:41:21;;;;;;;5.80;5.20;;;;;;;25.76;63.01;101279.94;5049574;28;19913;-81
2022/06/30 06:43:51;;;;;;;7.82;5.35;;;;;;;25.78;63.25;101278.13;5049172;28;20385;-82
2022/06/30 06:46:17;;;;;;;5.68;4.90;;;;;;;25.78;62.98;101286.16;5031379;28;20504;-80
2022/06/30 06:48:43;;;;;;;5.28;4.78;;;;;;;25.56;62.63;101242.50;5032269;28;20059;-82
2022/06/30 06:51:08;;;;;;;;;;;;;;;25.79;62.93;101275.47;5015686;28;20068;-81
2022/06/30 06:53:36;;;;;;;5.03;4.53;;;;;;;25.78;62.75;101275.47;5048853;28;20027;-81
2022/06/30 06:56:02;;;;;;;6.70;5.30;;;;;;;25.76;63.18;101282.59;5046606;28;20036;-81
2022/06/30 06:58:27;;;;;;;;;;;;;;;25.83;62.71;101279.06;5049031;28;20462;-80
2022/06/30 07:00:54;;;;;;;6.93;4.70;;;;;;;25.78;62.66;101271.03;5048926;28;19990;-84
2022/06/30 07:03:30;;;;;;;5.35;4.85;;;;;;;25.79;62.86;101275.47;5055009;28;20544;-82
2022/06/30 07:06:01;;;;;;;5.20;4.75;;;;;;;25.53;63.14;101229.16;5016704;28;20029;-81
2022/06/30 07:08:26;;;;;;;5.90;4.53;;;;;;;25.79;63.18;101274.59;5031514;28;20044;-80
2022/06/30 07:10:55;;;;;;;;;;;;;;;25.83;63.06;101270.13;5049107;28;20429;-80
2022/06/30 07:13:21;;;;;;;8.57;4.88;;;;;;;25.76;63.24;101267.47;5049596;28;19909;-81
2022/06/30 07:15:46;;;;;;;;;;;;;;;25.84;63.46;101274.59;5033380;28;20032;-81
2022/06/30 07:18:12;;;;;;;5.95;4.60;;;;;;;25.80;63.41;101277.28;5051005;28;19908;-80
2022/06/30 07:20:38;;;;;;;;;;;;;;;25.84;63.48;101286.16;5050846;28;20087;-82
2022/06/30 07:23:03;;;;;;;6.05;4.70;;;;;;;25.77;63.28;101277.25;5051010;28;20379;-81
2022/06/30 07:25:30;;;;;;;7.07;4.70;;;;;;;25.81;63.93;101278.16;5032812;28;20021;-80
2022/06/30 07:27:56;;;;;;;5.22;4.68;;;;;;;25.78;63.41;101268.34;5046580;28;20029;-80
2022/06/30 07:30:21;;;;;;;;;;;;;;;25.81;63.46;101272.81;5049484;28;20028;-80
2022/06/30 07:32:47;;;;;;;6.22;4.22;;;;;;;25.81;63.39;101259.44;5046072;28;19919;-82
2022/06/30 07:35:12;;;;;;;;;;;;;;;25.83;63.21;101268.34;5051092;28;20401;-81
2022/06/30 07:37:39;;;;;;;5.57;4.95;;;;;;;25.76;63.44;101256.75;5050260;28;20280;-81
2022/06/30 07:40:06;;;;;;;5.30;4.05;;;;;;;25.82;63.35;101273.69;5032327;28;20477;-81
2022/06/30 07:42:32;;;;;;;4.80;4.28;;;;;;;25.73;63.85;101263.88;5050015;28;20029;-81
2022/06/30 07:44:57;;;;;;;;;;;;;;;25.79;63.81;101266.56;5033510;28;20027;-81
2022/06/30 07:47:23;;;;;;;4.90;4.43;;;;;;;25.75;63.61;101260.31;5049642;28;19908;-80
2022/06/30 07:49:48;;;;;;;;;;;;;;;25.84;63.47;101267.44;5044686;28;20462;-80
2022/06/30 07:52:14;;;;;;;7.97;4.38;;;;;;;25.78;63.73;101263.00;5043231;28;20428;-81
2022/06/30 07:54:39;;;;;;;;;;;;;;;25.80;63.83;101262.97;5050215;28;20573;-80
2022/06/30 07:57:05;;;;;;;6.78;4.30;;;;;;;25.79;63.84;101262.09;5049489;28;20015;-81
2022/06/30 07:59:31;;;;;;;6.82;4.47;;;;;;;25.70;63.75;101250.53;5018108;28;20029;-80
2022/06/30 08:01:57;;;;;;;;;;;;;;;25.84;63.74;101272.78;5051097;28;20021;-80
2022/06/30 08:04:23;;;;;;;6.20;4.20;;;;;;;25.84;63.68;101275.47;5049069;28;19916;-81
2022/06/30 08:06:48;;;;;;;6.28;4.70;;;;;;;25.83;63.71;101280.84;5048881;28;20028;-80
2022/06/30 08:09:14;;;;;;;5.78;4.50;;;;;;;25.56;63.72;101243.38;5050013;28;20056;-81
2022/06/30 08:11:40;;;;;;;;;;;;;;;25.87;63.44;101287.97;5050516;28;20103;-80
2022/06/30 08:14:06;;;;;;;4.90;4.00;;;;;;;25.68;63.60;101261.22;5049976;28;20000;-79
2022/06/30 08:16:31;;;;;;;;;;;;;;;25.87;63.45;101296.00;5033962;28;20120;-80
2022/06/30 08:18:57;;;;;;;4.78;4.05;;;;;;;25.81;63.50;101291.53;5033005;28;20372;-80
2022/06/30 08:21:23;;;;;;;;;;;;;;;25.86;63.23;101294.19;5047795;28;20567;-81
2022/06/30 08:23:48;;;;;;;6.55;4.20;;;;;;;25.79;63.33;101287.97;5050009;28;20407;-80
2022/06/30 08:26:14;;;;;;;;;;;;;;;25.83;63.47;101292.44;5051119;28;20044;-80
2022/06/30 08:28:39;;;;;;;5.75;4.28;;;;;;;25.77;63.56;101276.38;5052686;28;20437;-80
2022/06/30 08:31:05;;;;;;;;;;;;;;;25.83;63.57;101291.53;5033118;28;20029;-80
2022/06/30 08:33:30;;;;;;;5.18;4.43;;;;;;;25.80;63.68;101298.69;5031549;28;19913;-80
2022/06/30 08:35:56;;;;;;;;;;;;;;;25.83;63.57;101291.53;5032599;28;20041;-79
2022/06/30 08:38:22;;;;;;;5.07;4.45;;;;;;;25.80;63.40;101287.97;5047193;28;20388;-81
2022/06/30 08:43:32;;;;;;;6.32;4.40;;;;;;;25.81;63.33;101296.88;5051205;28;19994;-82
2022/06/30 08:45:59;;;;;;;5.68;4.38;;;;;;;25.80;63.99;101292.41;5032992;28;20129;-82
2022/06/30 08:48:24;;;;;;;5.28;4.28;;;;;;;25.85;63.53;101295.09;5032653;28;20067;-81
2022/06/30 08:50:51;;;;;;;;;;;;;;;25.91;63.48;101292.47;5053867;28;20456;-81
2022/06/30 08:53:16;;;;;;;6.03;4.40;;;;;;;25.79;64.09;101282.63;5043722;28;19955;-80
2022/06/30 08:55:42;;;;;;;;;;;;;;;25.88;63.59;101290.63;5037386;28;20056;-80
2022/06/30 08:58:09;;;;;;;5.72;4.70;;;;;;;25.86;63.80;101275.47;5034564;28;20372;-82
2022/06/30 09:00:36;;;;;;;5.68;4.50;;;;;;;25.83;63.98;101284.41;5035683;28;20036;-81
2022/06/30 09:03:05;;;;;;;4.80;4.25;;;;;;;25.67;63.86;101248.72;5039285;28;20025;-80
2022/06/30 09:05:31;;;;;;;5.20;4.25;;;;;;;25.87;63.76;101279.94;5051996;28;20035;-81
2022/06/30 09:07:58;;;;;;;6.28;4.32;;;;;;;25.80;63.73;101268.31;5052638;28;20103;-82
2022/06/30 09:10:25;;;;;;;4.97;4.35;;;;;;;25.88;63.51;101279.03;5038274;28;20568;-81
2022/06/30 09:13:03;;;;;;;6.15;4.65;;;;;;;25.80;63.52;101285.31;5042461;28;20040;-81
2022/06/30 09:15:37;;;;;;;5.25;4.32;;;;;;;25.68;63.72;101263.91;5052703;28;20051;-81
2022/06/30 09:18:03;;;;;;;7.43;4.60;;;;;;;25.72;63.42;101260.34;5051893;28;20099;-81
2022/06/30 09:20:40;;;;;;;4.97;4.45;;;;;;;25.65;63.39;101245.16;5060458;28;20178;-82
2022/06/30 09:23:22;;;;;;;5.22;4.30;;;;;;;25.89;63.52;101288.91;5046657;28;20108;-82
2022/06/30 09:25:51;;;;;;;5.30;4.43;;;;;;;25.89;63.48;101279.09;5052162;28;20037;-80
2022/06/30 09:28:42;;;;;;;6.13;4.60;;;;;;;25.86;63.78;101279.03;5034939;28;20021;-81
2022/06/30 09:31:09;;;;;;;5.32;4.18;;;;;;;25.82;63.70;101269.22;5034326;28;20020;-81
2022/06/30 09:33:36;;;;;;;6.88;4.50;;;;;;;25.80;63.41;101254.94;5033918;28;20036;-81
2022/06/30 09:36:19;;;;;;;6.68;4.32;;;;;;;25.89;63.27;101272.84;5052035;28;20040;-81
2022/06/30 09:39:06;;;;;;;4.70;4.20;;;;;;;25.89;63.05;101276.41;5033744;28;20029;-81
2022/06/30 09:41:35;;;;;;;4.57;4.10;;;;;;;25.91;63.59;101285.31;5038968;28;20029;-82
2022/06/30 09:44:04;;;;;;;6.35;4.68;;;;;;;25.89;58.10;101280.88;5032995;28;20056;-83
2022/06/30 09:46:30;;;;;;;5.72;4.78;;;;;;;25.85;59.65;101279.06;5037021;28;20471;-80
2022/06/30 09:48:55;;;;;;;;;;;;;;;25.90;61.54;101290.66;5034406;28;20036;-81
2022/06/30 09:51:21;;;;;;;6.65;4.22;;;;;;;25.89;62.22;101292.47;5050632;28;19909;-83
2022/06/30 09:54:09;;;;;;;8.23;4.53;;;;;;;25.87;62.20;101286.19;5055881;28;20021;-81
2022/06/30 09:56:35;;;;;;;7.78;4.65;;;;;;;25.83;62.26;101280.84;5038916;28;20104;-81
2022/06/30 09:59:01;;;;;;;;;;;;;;;25.93;61.79;101283.53;5052495;28;20147;-81
2022/06/30 10:01:26;;;;;;;5.15;4.55;;;;;;;25.86;62.24;101273.69;5051987;28;19909;-81
2022/06/30 10:03:59;;;;;;;;;;;;;;;25.92;62.13;101283.53;5052317;28;20100;-81
2022/06/30 10:06:29;;;;;;;6.40;4.28;;;;;;;25.90;62.15;101280.84;5054849;28;20304;-81
2022/06/30 10:09:01;;;;;;;5.43;4.50;;;;;;;25.91;62.28;101287.13;5028777;28;20059;-83
2022/06/30 10:11:27;;;;;;;5.63;4.22;;;;;;;25.93;62.60;101278.19;5013521;28;20025;-81
2022/06/30 10:13:53;;;;;;;;;;;;;;;25.97;61.93;101279.97;5045027;28;20016;-83
2022/06/30 10:16:21;;;;;;;7.82;4.40;;;;;;;25.89;61.97;101256.78;5055552;28;19908;-82
2022/06/30 10:18:49;;;;;;;6.13;4.75;;;;;;;25.51;62.20;101193.50;5023035;28;20025;-82
2022/06/30 10:21:22;;;;;;;5.97;4.20;;;;;;;25.68;62.29;101209.50;5053544;28;20036;-82
2022/06/30 10:23:50;;;;;;;6.10;4.28;;;;;;;25.96;61.99;101259.44;5035297;28;20108;-82
2022/06/30 10:29:02;;;;;;;5.63;4.32;;;;;;;25.95;62.15;101257.66;5029005;28;20033;-80
2022/06/30 10:31:37;;;;;;;5.68;4.57;;;;;;;25.96;62.16;101258.56;5035132;28;20484;-81
2022/06/30 10:34:15;;;;;;;6.18;4.38;;;;;;;25.94;62.09;101254.97;5022624;28;20048;-82
2022/06/30 10:36:51;;;;;;;6.93;4.18;;;;;;;25.95;62.41;101252.31;5032890;28;20117;-81
2022/06/30 10:39:23;;;;;;;;;;;;;;;26.03;62.15;101257.63;5016599;28;20021;-82
2022/06/30 10:41:52;;;;;;;4.40;4.00;;;;;;;26.00;61.99;101252.31;5033585;28;19908;-82
2022/06/30 10:44:23;;;;;;;8.07;4.15;;;;;;;25.99;62.33;101248.75;5032606;28;20033;-81
2022/06/30 10:46:48;;;;;;;6.75;3.83;;;;;;;25.98;62.15;101249.63;5016418;28;20619;-81
2022/06/30 10:49:14;;;;;;;;;;;;;;;26.05;61.83;101245.13;5044128;28;20100;-82
2022/06/30 10:51:42;;;;;;;5.95;4.25;;;;;;;25.77;62.31;101204.13;5017160;28;19944;-82
2022/06/30 10:54:29;;;;;;;5.28;3.92;;;;;;;26.02;62.34;101247.84;5014487;28;20025;-82
2022/06/30 10:56:56;;;;;;;4.85;4.00;;;;;;;25.65;62.21;101183.63;5041303;28;20029;-81
2022/06/30 10:59:41;;;;;;;6.00;4.00;;;;;;;26.03;62.43;101246.03;5045635;28;20063;-81
2022/06/30 11:02:07;;;;;;;6.50;4.25;;;;;;;26.05;62.32;101242.47;5050974;28;20028;-82
2022/06/30 11:04:32;;;;;;;;;;;;;;;26.08;61.61;101246.94;5050806;28;20013;-81
2022/06/30 11:07:01;;;;;;;6.28;3.95;;;;;;;26.05;61.70;101247.81;5049935;28;19920;-81
2022/06/30 11:09:55;;;;;;;5.80;3.65;;;;;;;26.08;61.98;101247.81;5033168;28;20050;-80
2022/06/30 11:12:29;;;;;;;5.20;4.10;;;;;;;26.05;62.09;101246.94;5037325;28;20036;-82
2022/06/30 11:15:01;;;;;;;7.30;4.00;;;;;;;25.81;62.19;101200.56;5061061;28;20492;-81
2022/06/30 11:17:28;;;;;;;5.10;4.13;;;;;;;26.10;62.08;101250.47;5038867;28;20025;-82
2022/06/30 11:20:01;;;;;;;6.00;3.90;;;;;;;26.11;62.20;101255.84;5054506;28;20024;-82
2022/06/30 11:22:30;;;;;;;5.82;3.85;;;;;;;25.97;61.72;101226.44;5049487;28;20024;-83
2022/06/30 11:25:02;;;;;;;5.03;3.58;;;;;;;26.13;61.91;101256.72;5015700;28;20103;-81
2022/06/30 11:27:36;;;;;;;4.95;3.72;;;;;;;26.08;62.18;101246.94;5049027;28;20507;-82
2022/06/30 11:30:10;;;;;;;4.25;3.60;;;;;;;26.00;61.76;101230.88;5049801;28;20024;-80
2022/06/30 11:32:37;;;;;;;4.82;4.00;;;;;;;26.16;61.88;101247.78;5030486;28;20013;-82
2022/06/30 11:35:03;;;;;;;3.95;3.47;;;;;;;26.17;61.81;101250.47;5047292;28;20424;-82
2022/06/30 11:37:31;;;;;;;5.55;3.67;;;;;;;26.17;61.99;101252.25;5031300;28;20169;-81
2022/06/30 11:39:57;;;;;;;4.80;3.78;;;;;;;26.15;61.70;101248.69;5049231;28;20020;-82
2022/06/30 11:42:23;;;;;;;6.15;3.60;;;;;;;26.15;61.68;101241.56;5049500;28;20043;-82
2022/06/30 11:44:49;;;;;;;4.38;3.80;;;;;;;26.18;62.04;101244.22;5028063;28;20029;-80
2022/06/30 11:47:16;;;;;;;;;;;;;;;26.25;61.39;101244.22;5031066;28;20017;-81
2022/06/30 11:49:54;;;;;;;4.72;3.53;;;;;;;26.20;62.07;101239.75;5049692;28;19912;-81
2022/06/30 11:52:21;;;;;;;5.55;3.83;;;;;;;26.06;61.64;101216.59;5048553;28;20029;-82
2022/06/30 11:54:53;;;;;;;4.70;3.40;;;;;;;26.08;62.11;101221.06;5015520;28;20167;-82
2022/06/30 11:57:20;;;;;;;6.47;3.95;;;;;;;26.21;61.88;101232.63;5050777;28;20032;-81
2022/06/30 11:59:47;;;;;;;4.55;3.65;;;;;;;26.24;61.71;101231.72;5053304;28;20025;-80
2022/06/30 12:02:14;;;;;;;4.43;3.92;;;;;;;26.03;61.88;101198.75;5035778;28;20039;-80
2022/06/30 12:04:43;;;;;;;5.88;3.63;;;;;;;26.19;62.05;101224.59;5052204;28;20128;-82